EmailTwitter


Surface observations / Canada / CYYZ (71624)

Regions: Quebec | Canada | USA | Europe | France | UK | Elsewhere
Station
Display
Info & Location for CYYZ (71624) | Help decoding METAR

Weather Conditions observed on 2018/10/16 at 19:00 UTC at TORONTO A, ON (CYYZ)

Sky conditions: variable clouds.

Temperature: 11.0 Celsius.

Dewpoint: -1.0 Celsius.

Relative Humidity: 43%

Windchill Factor: 8.

Windchill Factor (Gusts): 7.

Winds: West-southwest at 31 km/h or 17 knots.

Gust: 43 km/h or 23 knots.

Mean Sea level Pressure: 101.51 kilopascals.

Altimeter Setting (QNH): 101.46 kilopascals or 29.96 inches of mercury.

Horizontal visibility: 15.00 statute miles or 24.00 kilometers.

Coded METAR:

CYYZ 161900Z 25017G23KT 15SM FEW030 SCT090 SCT140 BKN240 11/M01 A2996 RMK

CU1AC2AC1CI1 SLP151=